createdAt,value
2023-02-19T00:01:20.381Z,102135.84
2023-02-19T00:03:56.952Z,102176.91
2023-02-19T00:06:25.278Z,102193.88
2023-02-19T00:08:51.767Z,102167.94
2023-02-19T00:11:23.825Z,102189.63
2023-02-19T00:13:52.480Z,102201.19
2023-02-19T00:16:23.704Z,102199.25
2023-02-19T00:18:50.748Z,102199.59
2023-02-19T00:21:18.083Z,102140.72
2023-02-19T00:23:49.303Z,102199.38
2023-02-19T00:26:18.416Z,102193.38
2023-02-19T00:28:49.682Z,102201.03
2023-02-19T00:31:21.096Z,102199.56
2023-02-19T00:33:49.726Z,102198.75
2023-02-19T00:36:16.766Z,102200.53
2023-02-19T00:38:44.532Z,102190.75
2023-02-19T00:41:13.273Z,102203.16
2023-02-19T00:43:39.808Z,102189.44
2023-02-19T00:46:06.311Z,102209.50
2023-02-19T00:48:32.828Z,102210.81
2023-02-19T00:50:59.337Z,102195.00
2023-02-19T00:53:25.957Z,102142.34
2023-02-19T00:55:52.534Z,102201.81
2023-02-19T00:58:19.069Z,102213.41
2023-02-19T01:00:45.576Z,102223.69
2023-02-19T01:03:12.076Z,102232.81
2023-02-19T01:05:38.893Z,102220.25
2023-02-19T01:08:05.398Z,102222.38
2023-02-19T01:10:31.899Z,102229.06
2023-02-19T01:12:58.427Z,102155.16
2023-02-19T01:15:25.031Z,102158.13
2023-02-19T01:17:51.496Z,102163.66
2023-02-19T01:20:18.357Z,102221.72
2023-02-19T01:22:44.853Z,102223.03
2023-02-19T01:25:11.367Z,102235.56
2023-02-19T01:27:38.953Z,102177.66
2023-02-19T01:30:05.902Z,102228.25
2023-02-19T01:32:32.450Z,102182.41
2023-02-19T01:34:58.909Z,102235.72
2023-02-19T01:37:25.472Z,102222.38
2023-02-19T01:39:51.992Z,102233.25
2023-02-19T01:42:18.679Z,102207.81
2023-02-19T01:44:45.288Z,102233.94
2023-02-19T01:47:12.375Z,102232.81
2023-02-19T01:49:44.839Z,102224.66
2023-02-19T01:52:27.266Z,102237.81
2023-02-19T01:54:55.412Z,102218.09
2023-02-19T01:57:30.660Z,102235.53
2023-02-19T02:00:03.021Z,102239.78
2023-02-19T02:02:29.607Z,102231.75
2023-02-19T02:04:58.346Z,102228.00
2023-02-19T02:07:24.779Z,102241.19
2023-02-19T02:09:52.101Z,102238.59
2023-02-19T02:12:18.534Z,102216.22
2023-02-19T02:14:47.945Z,102239.72
2023-02-19T02:17:28.537Z,102196.66
2023-02-19T02:20:13.362Z,102250.78
2023-02-19T02:23:07.253Z,102252.91
2023-02-19T02:25:38.902Z,102250.50
2023-02-19T02:28:35.973Z,102249.63
2023-02-19T02:31:22.946Z,102192.75
2023-02-19T02:33:59.570Z,102230.56
2023-02-19T02:36:40.209Z,102238.44
2023-02-19T02:39:11.469Z,102241.22
2023-02-19T02:41:43.726Z,102250.19
2023-02-19T02:44:10.165Z,102195.75
2023-02-19T02:46:40.707Z,102239.91
2023-02-19T02:49:14.727Z,102239.13
2023-02-19T02:51:49.453Z,102238.78
2023-02-19T02:54:25.588Z,102253.63
2023-02-19T02:56:52.998Z,102240.91
2023-02-19T02:59:23.632Z,102205.19
2023-02-19T03:01:55.531Z,102212.84
2023-02-19T03:04:37.045Z,102251.34
2023-02-19T03:07:09.566Z,102259.16
2023-02-19T03:09:41.351Z,102251.84
2023-02-19T03:12:14.347Z,102201.25
2023-02-19T03:14:55.831Z,102207.63
2023-02-19T03:17:30.034Z,102244.50
2023-02-19T03:19:58.576Z,102198.66
2023-02-19T03:22:31.618Z,102237.63
2023-02-19T03:25:07.139Z,102231.09
2023-02-19T03:27:35.969Z,102231.78
2023-02-19T03:30:09.904Z,102234.34
2023-02-19T03:32:40.210Z,102253.91
2023-02-19T03:35:11.966Z,102254.44
2023-02-19T03:38:01.559Z,102265.50
2023-02-19T03:40:31.025Z,102267.44
2023-02-19T03:43:06.493Z,102279.84
2023-02-19T03:45:52.309Z,102220.28
2023-02-19T03:48:35.453Z,102270.03
2023-02-19T03:51:28.013Z,102225.63
2023-02-19T03:54:02.555Z,102289.22
2023-02-19T03:56:34.660Z,102300.47
2023-02-19T03:59:18.548Z,102294.94
2023-02-19T04:01:50.532Z,102310.22
2023-02-19T04:04:25.104Z,102315.31
2023-02-19T04:06:55.651Z,102302.53
2023-02-19T04:09:27.421Z,102330.38
2023-02-19T04:11:55.089Z,102339.94
2023-02-19T04:14:28.961Z,102336.72
2023-02-19T04:17:00.955Z,102285.69
2023-02-19T04:19:30.969Z,102362.47
2023-02-19T04:21:59.353Z,102361.66
2023-02-19T04:24:38.783Z,102368.50
2023-02-19T04:27:06.693Z,102308.84
2023-02-19T04:29:33.114Z,102313.22
2023-02-19T04:31:59.641Z,102367.44
2023-02-19T04:34:26.150Z,102307.06
2023-02-19T04:36:52.604Z,102378.66
2023-02-19T04:39:19.145Z,102372.47
2023-02-19T04:41:45.615Z,102371.97
2023-02-19T04:44:12.085Z,102314.44
2023-02-19T04:46:42.928Z,102364.91
2023-02-19T04:49:09.677Z,102369.66
2023-02-19T04:51:36.144Z,102387.44
2023-02-19T04:54:02.589Z,102330.06
2023-02-19T04:56:29.121Z,102389.59
2023-02-19T04:58:55.824Z,102395.91
2023-02-19T05:01:22.287Z,102400.16
2023-02-19T05:03:48.779Z,102393.53
2023-02-19T05:06:15.360Z,102394.88
2023-02-19T05:08:42.141Z,102398.75
2023-02-19T05:11:11.522Z,102411.22
2023-02-19T05:13:39.073Z,102359.41
2023-02-19T05:16:12.921Z,102347.94
2023-02-19T05:18:40.110Z,102350.03
2023-02-19T05:21:06.602Z,102357.69
2023-02-19T05:23:33.104Z,102419.34
2023-02-19T05:25:59.584Z,102417.56
2023-02-19T05:28:26.173Z,102422.03
2023-02-19T05:30:53.031Z,102434.16
2023-02-19T05:33:21.858Z,102391.38
2023-02-19T05:35:54.251Z,102399.13
2023-02-19T05:38:21.562Z,102429.91
2023-02-19T05:40:48.034Z,102408.03
2023-02-19T05:43:15.193Z,102446.97
2023-02-19T05:45:41.745Z,102448.78
2023-02-19T05:48:08.667Z,102446.47
2023-02-19T05:50:38.251Z,102425.34
2023-02-19T05:53:06.366Z,102440.59
2023-02-19T05:55:36.440Z,102395.63
2023-02-19T05:58:03.182Z,102446.03
2023-02-19T06:00:30.048Z,102440.31
2023-02-19T06:02:56.520Z,102430.50
2023-02-19T06:05:22.983Z,102441.06
2023-02-19T06:07:49.401Z,102453.44
2023-02-19T06:10:16.683Z,102387.38
2023-02-19T06:12:43.124Z,102457.38
2023-02-19T06:15:09.623Z,102466.13
2023-02-19T06:17:36.107Z,102465.19
2023-02-19T06:20:03.038Z,102453.44
2023-02-19T06:22:29.474Z,102469.41
2023-02-19T06:24:55.951Z,102459.97
2023-02-19T06:27:22.415Z,102478.94
2023-02-19T06:29:48.922Z,102484.28
2023-02-19T06:32:15.493Z,102460.00
2023-02-19T06:34:42.058Z,102486.97
2023-02-19T06:37:08.540Z,102493.88
2023-02-19T06:39:35.031Z,102492.56
2023-02-19T06:42:01.434Z,102496.63
2023-02-19T06:44:27.876Z,102493.16
2023-02-19T06:46:55.864Z,102475.47
2023-02-19T06:49:22.723Z,102512.84
2023-02-19T06:51:49.288Z,102446.81
2023-02-19T06:54:15.751Z,102525.66
2023-02-19T06:56:42.368Z,102448.56
2023-02-19T06:59:12.222Z,102487.94
2023-02-19T07:01:39.877Z,102486.59
2023-02-19T07:04:07.327Z,102551.69
2023-02-19T07:06:35.374Z,102548.97
2023-02-19T07:09:03.591Z,102561.44
2023-02-19T07:11:32.470Z,102555.94
2023-02-19T07:14:01.092Z,102566.47
2023-02-19T07:16:28.325Z,102562.00
2023-02-19T07:18:58.775Z,102565.81
2023-02-19T07:21:26.114Z,102561.28
2023-02-19T07:23:52.698Z,102568.44
2023-02-19T07:26:20.624Z,102573.06
2023-02-19T07:28:49.138Z,102573.06
2023-02-19T07:31:18.094Z,102585.66
2023-02-19T07:33:45.617Z,102587.91
2023-02-19T07:36:12.848Z,102526.69
2023-02-19T07:38:39.379Z,102585.38
2023-02-19T07:41:06.762Z,102570.91
2023-02-19T07:43:35.485Z,102580.44
2023-02-19T07:46:11.027Z,102602.56
2023-02-19T07:48:39.161Z,102608.16
2023-02-19T07:51:07.613Z,102592.16
2023-02-19T07:53:35.609Z,102548.72
2023-02-19T07:56:04.294Z,102566.94
2023-02-19T07:58:31.957Z,102619.59
2023-02-19T08:01:06.741Z,102633.50
2023-02-19T08:03:33.304Z,102634.13
2023-02-19T08:05:59.733Z,102577.84
2023-02-19T08:08:26.207Z,102591.41
2023-02-19T08:10:52.708Z,102637.41
2023-02-19T08:13:19.375Z,102646.81
2023-02-19T08:16:18.324Z,102652.31
2023-02-19T08:18:48.156Z,102591.84
2023-02-19T08:21:15.258Z,102654.88
2023-02-19T08:23:41.800Z,102662.09
2023-02-19T08:26:08.254Z,102656.22
2023-02-19T08:28:34.686Z,102608.22
2023-02-19T08:31:03.515Z,102654.47
2023-02-19T08:33:30.517Z,102665.28
2023-02-19T08:35:57.483Z,102613.56
2023-02-19T08:38:23.978Z,102665.44
2023-02-19T08:40:50.457Z,102649.66
2023-02-19T08:43:17.915Z,102641.25
2023-02-19T08:45:45.528Z,102666.63
2023-02-19T08:48:12.163Z,102662.94
2023-02-19T08:50:39.132Z,102662.19
2023-02-19T08:53:06.759Z,102621.38
2023-02-19T08:55:33.689Z,102666.88
2023-02-19T08:58:01.039Z,102683.19
2023-02-19T09:00:27.523Z,102666.63
2023-02-19T09:02:54.047Z,102681.09
2023-02-19T09:05:20.550Z,102638.47
2023-02-19T09:07:47.025Z,102627.31
2023-02-19T09:10:14.478Z,102687.66
2023-02-19T09:12:41.444Z,102685.59
2023-02-19T09:15:08.299Z,102679.31
2023-02-19T09:17:34.778Z,102680.22
2023-02-19T09:20:01.305Z,102679.56
2023-02-19T09:22:27.845Z,102689.66
2023-02-19T09:24:54.272Z,102702.13
2023-02-19T09:27:21.146Z,102714.13
2023-02-19T09:29:47.712Z,102705.28
2023-02-19T09:32:14.414Z,102668.56
2023-02-19T09:34:41.122Z,102731.19
2023-02-19T09:37:08.186Z,102733.91
2023-02-19T09:39:34.993Z,102733.84
2023-02-19T09:42:09.945Z,102724.81
2023-02-19T09:44:40.526Z,102765.66
2023-02-19T09:47:16.759Z,102772.78
2023-02-19T09:49:45.824Z,102723.03
2023-02-19T09:52:18.827Z,102782.47
2023-02-19T09:54:46.951Z,102796.03
2023-02-19T09:57:19.598Z,102778.66
2023-02-19T09:59:51.914Z,102731.03
2023-02-19T10:02:20.470Z,102800.03
2023-02-19T10:04:49.088Z,102744.75
2023-02-19T10:07:18.941Z,102766.50
2023-02-19T10:09:51.405Z,102789.38
2023-02-19T10:12:32.012Z,102812.31
2023-02-19T10:15:10.923Z,102761.06
2023-02-19T10:17:37.434Z,102816.44
2023-02-19T10:20:04.324Z,102766.34
2023-02-19T10:22:35.752Z,102818.91
2023-02-19T10:25:02.780Z,102813.34
2023-02-19T10:27:30.235Z,102827.28
2023-02-19T10:29:57.866Z,102822.28
2023-02-19T10:32:26.932Z,102770.63
2023-02-19T10:35:26.237Z,102823.50
2023-02-19T10:37:53.221Z,102779.41
2023-02-19T10:40:21.999Z,102771.19
2023-02-19T10:42:51.979Z,102812.03
2023-02-19T10:45:24.444Z,102760.44
2023-02-19T10:47:51.418Z,102810.59
2023-02-19T10:50:27.866Z,102805.47
2023-02-19T10:52:56.696Z,102815.59
2023-02-19T10:55:28.231Z,102815.88
2023-02-19T10:57:55.616Z,102761.41
2023-02-19T11:00:29.826Z,102801.88
2023-02-19T11:03:22.118Z,102804.72
2023-02-19T11:06:16.418Z,102792.50
2023-02-19T11:08:52.942Z,102782.06
2023-02-19T11:11:23.414Z,102733.16
2023-02-19T11:13:50.151Z,102753.16
2023-02-19T11:16:16.729Z,102768.44
2023-02-19T11:18:44.516Z,102710.19
2023-02-19T11:21:27.913Z,102767.16
2023-02-19T11:23:55.652Z,102754.72
2023-02-19T11:26:25.254Z,102755.75
2023-02-19T11:29:12.666Z,102741.09
2023-02-19T11:31:39.217Z,102688.91
2023-02-19T11:34:14.981Z,102727.31
2023-02-19T11:36:42.651Z,102673.50
2023-02-19T11:39:15.017Z,102714.38
2023-02-19T11:41:45.003Z,102674.44
2023-02-19T11:44:43.785Z,102699.16
2023-02-19T11:47:41.492Z,102664.94
2023-02-19T11:50:23.185Z,102665.50
2023-02-19T11:53:14.464Z,102704.34
2023-02-19T11:56:08.255Z,102661.75
2023-02-19T11:58:37.737Z,102700.84
2023-02-19T12:01:21.038Z,102701.72
2023-02-19T12:04:14.442Z,102661.00
2023-02-19T12:06:43.837Z,102670.28
2023-02-19T12:09:27.601Z,102719.53
2023-02-19T12:12:19.197Z,102720.44
2023-02-19T12:14:57.596Z,102652.41
2023-02-19T12:17:33.125Z,102719.03
2023-02-19T12:19:59.607Z,102724.00
2023-02-19T12:22:44.512Z,102710.88
2023-02-19T12:25:42.136Z,102742.69
2023-02-19T12:28:48.442Z,102748.22
2023-02-19T12:31:14.941Z,102755.47
2023-02-19T12:33:56.846Z,102760.13
2023-02-19T12:36:37.299Z,102762.41
2023-02-19T12:39:14.413Z,102711.22
2023-02-19T12:42:28.489Z,102768.88
2023-02-19T12:45:01.827Z,102803.94
2023-02-19T12:47:34.992Z,102782.09
2023-02-19T12:50:18.736Z,102794.41
2023-02-19T12:52:50.714Z,102782.44
2023-02-19T12:55:31.515Z,102782.94
2023-02-19T12:58:02.426Z,102794.44
2023-02-19T13:00:38.683Z,102794.94
2023-02-19T13:03:07.324Z,102744.31
2023-02-19T13:05:52.023Z,102808.59
2023-02-19T13:08:27.565Z,102767.53
2023-02-19T13:10:59.399Z,102814.94
2023-02-19T13:13:30.811Z,102781.97
2023-02-19T13:16:04.327Z,102808.41
2023-02-19T13:18:41.879Z,102812.00
2023-02-19T13:21:09.057Z,102802.28
2023-02-19T13:23:38.826Z,102840.88
2023-02-19T13:26:17.770Z,102827.16
2023-02-19T13:29:20.274Z,102820.31
2023-02-19T13:32:24.262Z,102833.22
2023-02-19T13:35:00.816Z,102838.03
2023-02-19T13:37:27.995Z,102832.00
2023-02-19T13:39:56.300Z,102841.03
2023-02-19T13:42:27.485Z,102854.34
2023-02-19T13:44:57.882Z,102866.00
2023-02-19T13:47:48.565Z,102871.59
2023-02-19T13:50:24.981Z,102876.66
2023-02-19T13:52:54.550Z,102830.63
2023-02-19T13:55:42.914Z,102884.06
2023-02-19T13:58:38.963Z,102888.88
2023-02-19T14:01:10.921Z,102879.41
2023-02-19T14:03:37.627Z,102826.25
2023-02-19T14:06:08.319Z,102881.94
2023-02-19T14:08:49.634Z,102894.56
2023-02-19T14:11:16.733Z,102892.13
2023-02-19T14:14:01.392Z,102854.47
2023-02-19T14:16:36.843Z,102903.22
2023-02-19T14:19:13.186Z,102903.38
2023-02-19T14:21:40.747Z,102898.84
2023-02-19T14:24:15.004Z,102901.16
2023-02-19T14:26:42.260Z,102919.22
2023-02-19T14:29:13.584Z,102871.28
2023-02-19T14:31:44.065Z,102934.31
2023-02-19T14:34:20.459Z,102921.28
2023-02-19T14:37:01.281Z,102905.00
2023-02-19T14:39:34.047Z,102920.31
2023-02-19T14:42:02.821Z,102924.72
2023-02-19T14:44:35.015Z,102920.16
2023-02-19T14:47:07.375Z,102878.75
2023-02-19T14:49:42.994Z,102933.31
2023-02-19T14:52:22.661Z,102937.34
2023-02-19T14:54:51.210Z,102913.16
2023-02-19T14:57:23.170Z,102933.38
2023-02-19T15:00:19.908Z,102917.53
2023-02-19T15:02:46.504Z,102923.63
2023-02-19T15:05:25.388Z,102865.50
2023-02-19T15:07:54.893Z,102908.56
2023-02-19T15:10:22.353Z,102890.88
2023-02-19T15:12:55.081Z,102892.66
2023-02-19T15:15:24.848Z,102810.31
2023-02-19T15:17:53.815Z,102883.50
2023-02-19T15:20:24.068Z,102827.06
2023-02-19T15:22:52.340Z,102827.22
2023-02-19T15:25:22.363Z,102865.81
2023-02-19T15:27:48.987Z,102858.00
2023-02-19T15:30:20.449Z,102811.19
2023-02-19T15:32:58.889Z,102808.84
2023-02-19T15:35:27.483Z,102813.91
2023-02-19T15:37:54.912Z,102852.81
2023-02-19T15:40:26.783Z,102857.75
2023-02-19T15:42:53.333Z,102875.41
2023-02-19T15:45:25.160Z,102863.09
2023-02-19T15:47:57.971Z,102869.53
2023-02-19T15:50:29.976Z,102786.69
2023-02-19T15:52:58.377Z,102876.09
2023-02-19T15:55:59.677Z,102831.72
2023-02-19T15:58:51.340Z,102804.47
2023-02-19T16:01:29.540Z,102859.28
2023-02-19T16:03:56.844Z,102870.50
2023-02-19T16:06:25.613Z,102878.00
2023-02-19T16:08:52.135Z,102887.41
2023-02-19T16:11:24.460Z,102899.91
2023-02-19T16:13:51.816Z,102878.69
2023-02-19T16:16:39.506Z,102902.50
2023-02-19T16:19:05.999Z,102883.13
2023-02-19T16:21:32.487Z,102909.16
2023-02-19T16:24:35.107Z,102919.50
2023-02-19T16:27:02.904Z,102913.91
2023-02-19T16:29:32.401Z,102930.19
2023-02-19T16:32:03.416Z,102870.81
2023-02-19T16:34:34.390Z,102934.47
2023-02-19T16:37:02.479Z,102951.41
2023-02-19T16:39:29.976Z,102942.28
2023-02-19T16:42:12.065Z,102950.84
2023-02-19T16:44:38.572Z,102955.84
2023-02-19T16:47:13.777Z,102951.03
2023-02-19T16:49:40.254Z,102932.66
2023-02-19T16:52:06.728Z,102935.31
2023-02-19T16:54:33.325Z,102947.16
2023-02-19T16:56:59.724Z,102949.06
2023-02-19T16:59:26.190Z,102888.69
2023-02-19T17:01:52.719Z,102941.13
2023-02-19T17:04:19.436Z,102918.09
2023-02-19T17:06:47.100Z,102951.44
2023-02-19T17:09:13.556Z,102932.09
2023-02-19T17:11:40.062Z,102949.47
2023-02-19T17:14:06.649Z,102890.09
2023-02-19T17:16:33.816Z,102947.75
2023-02-19T17:19:00.433Z,102967.47
2023-02-19T17:21:28.675Z,102963.25
2023-02-19T17:23:56.149Z,102985.53
2023-02-19T17:26:23.871Z,102988.13
2023-02-19T17:28:50.828Z,102995.81
2023-02-19T17:31:18.016Z,103003.75
2023-02-19T17:33:45.425Z,102953.69
2023-02-19T17:36:19.437Z,102955.03
2023-02-19T17:38:45.889Z,102955.38
2023-02-19T17:41:12.707Z,102977.88
2023-02-19T17:43:39.322Z,102986.81
2023-02-19T17:46:06.096Z,102978.56
2023-02-19T17:48:32.569Z,103002.25
2023-02-19T17:50:59.079Z,103001.78
2023-02-19T17:53:25.534Z,103014.16
2023-02-19T17:55:51.956Z,102967.84
2023-02-19T17:58:18.513Z,103016.28
2023-02-19T18:00:45.086Z,102958.66
2023-02-19T18:03:11.508Z,102966.22
2023-02-19T18:05:38.108Z,102975.75
2023-02-19T18:08:04.595Z,103021.13
2023-02-19T18:10:31.081Z,103010.16
2023-02-19T18:12:57.565Z,103006.06
2023-02-19T18:15:25.997Z,102995.88
2023-02-19T18:17:53.498Z,102985.53
2023-02-19T18:20:30.508Z,102997.66
2023-02-19T18:22:57.770Z,102933.13
2023-02-19T18:25:24.868Z,103006.75
2023-02-19T18:27:51.433Z,103011.94
2023-02-19T18:30:20.151Z,102993.78
2023-02-19T18:32:46.945Z,102966.81
2023-02-19T18:35:13.516Z,103020.31
2023-02-19T18:37:40.014Z,102997.91
2023-02-19T18:40:07.371Z,102939.47
2023-02-19T18:42:33.833Z,102999.66
2023-02-19T18:45:00.277Z,103004.94
2023-02-19T18:47:26.770Z,102962.88
2023-02-19T18:49:56.711Z,102966.16
2023-02-19T18:52:24.558Z,103001.63
2023-02-19T18:54:53.482Z,102998.19
2023-02-19T18:57:22.980Z,103012.00
2023-02-19T18:59:49.930Z,102978.84
2023-02-19T19:02:16.863Z,103010.06
2023-02-19T19:04:43.344Z,103004.53
2023-02-19T19:07:10.151Z,103018.19
2023-02-19T19:09:37.433Z,103005.25
2023-02-19T19:12:04.503Z,103011.81
2023-02-19T19:14:30.991Z,102949.53
2023-02-19T19:16:57.460Z,103003.94
2023-02-19T19:19:24.060Z,103006.88
2023-02-19T19:21:53.633Z,102999.91
2023-02-19T19:24:22.109Z,103015.44
2023-02-19T19:26:50.014Z,103022.97
2023-02-19T19:29:18.772Z,103009.53
2023-02-19T19:31:46.214Z,102964.47
2023-02-19T19:34:13.363Z,103007.25
2023-02-19T19:36:39.831Z,103000.44
2023-02-19T19:39:07.207Z,102972.38
2023-02-19T19:41:33.677Z,102997.94
2023-02-19T19:44:04.041Z,103033.19
2023-02-19T19:46:30.721Z,103018.22
2023-02-19T19:48:57.220Z,103016.38
2023-02-19T19:51:23.729Z,103008.84
2023-02-19T19:53:50.682Z,103017.00
2023-02-19T19:56:17.649Z,103026.72
2023-02-19T19:58:44.194Z,102972.31
2023-02-19T20:01:14.159Z,103034.00
2023-02-19T20:03:40.832Z,103006.41
2023-02-19T20:06:07.476Z,103029.75
2023-02-19T20:08:33.971Z,103033.72
2023-02-19T20:11:00.388Z,103034.13
2023-02-19T20:13:26.865Z,102983.81
2023-02-19T20:15:53.401Z,102989.50
2023-02-19T20:18:19.944Z,103036.38
2023-02-19T20:20:46.698Z,103038.03
2023-02-19T20:23:13.214Z,103056.03
2023-02-19T20:25:39.638Z,103005.91
2023-02-19T20:28:06.098Z,103061.00
2023-02-19T20:30:32.543Z,103065.31
2023-02-19T20:32:59.335Z,103068.75
2023-02-19T20:35:26.544Z,103004.28
2023-02-19T20:37:53.159Z,103073.81
2023-02-19T20:40:19.699Z,103066.38
2023-02-19T20:42:46.199Z,103080.97
2023-02-19T20:45:12.624Z,103018.00
2023-02-19T20:47:39.853Z,103077.53
2023-02-19T20:50:07.279Z,103064.31
2023-02-19T20:52:33.757Z,103101.66
2023-02-19T20:55:00.231Z,103099.16
2023-02-19T20:57:26.765Z,103102.78
2023-02-19T20:59:53.246Z,103089.44
2023-02-19T21:02:23.718Z,103068.88
2023-02-19T21:04:50.422Z,103083.75
2023-02-19T21:07:16.959Z,103105.28
2023-02-19T21:09:43.419Z,103113.13
2023-02-19T21:12:09.923Z,103106.63
2023-02-19T21:14:36.336Z,103087.38
2023-02-19T21:17:02.837Z,103054.38
2023-02-19T21:19:29.477Z,102979.47
2023-02-19T21:21:55.917Z,103015.31
2023-02-19T21:24:22.458Z,103006.28
2023-02-19T21:26:48.947Z,103009.28
2023-02-19T21:29:18.302Z,102943.78
2023-02-19T21:31:51.457Z,102987.16
2023-02-19T21:34:21.035Z,102990.34
2023-02-19T21:36:47.594Z,102918.38
2023-02-19T21:39:18.101Z,102976.31
2023-02-19T21:41:44.629Z,102971.84
2023-02-19T21:44:11.215Z,102905.16
2023-02-19T21:46:38.117Z,102943.56
2023-02-19T21:49:05.157Z,102951.84
2023-02-19T21:51:34.809Z,102891.53
2023-02-19T21:54:02.031Z,102944.28
2023-02-19T21:56:30.957Z,102946.38
2023-02-19T21:58:57.924Z,102878.31
2023-02-19T22:01:27.923Z,102905.78
2023-02-19T22:03:54.799Z,102878.22
2023-02-19T22:06:25.668Z,102942.03
2023-02-19T22:08:53.269Z,102873.50
2023-02-19T22:11:19.873Z,102901.81
2023-02-19T22:13:46.718Z,102945.22
2023-02-19T22:16:14.205Z,102924.75
2023-02-19T22:18:55.594Z,102921.00
2023-02-19T22:21:24.104Z,102918.44
2023-02-19T22:23:52.714Z,102910.66
2023-02-19T22:26:20.251Z,102923.25
2023-02-19T22:28:47.078Z,102911.19
2023-02-19T22:31:18.469Z,102855.31
2023-02-19T22:33:45.128Z,102912.47
2023-02-19T22:36:20.672Z,102858.09
2023-02-19T22:38:47.559Z,102915.25
2023-02-19T22:41:14.951Z,102853.00
2023-02-19T22:43:41.453Z,102897.41
2023-02-19T22:46:15.979Z,102832.84
2023-02-19T22:48:42.599Z,102829.44
2023-02-19T22:51:11.182Z,102817.34
2023-02-19T22:53:37.604Z,102872.50
2023-02-19T22:56:04.168Z,102796.66
2023-02-19T22:58:30.589Z,102854.72
2023-02-19T23:00:57.037Z,102861.81
2023-02-19T23:03:23.456Z,102827.44
2023-02-19T23:05:49.917Z,102865.59
2023-02-19T23:08:16.348Z,102863.41
2023-02-19T23:10:42.802Z,102792.72
2023-02-19T23:13:09.252Z,102785.06
2023-02-19T23:15:35.671Z,102797.88
2023-02-19T23:18:02.166Z,102841.94
2023-02-19T23:20:28.632Z,102799.69
2023-02-19T23:22:55.146Z,102832.94
2023-02-19T23:25:21.541Z,102839.16
2023-02-19T23:27:48.047Z,102775.69
2023-02-19T23:30:15.658Z,102836.59
2023-02-19T23:32:42.205Z,102781.59
2023-02-19T23:35:08.777Z,102834.94
2023-02-19T23:37:35.260Z,102760.53
2023-02-19T23:40:01.711Z,102749.09
2023-02-19T23:42:28.277Z,102800.56
2023-02-19T23:44:54.765Z,102771.00
2023-02-19T23:47:21.190Z,102803.97
2023-02-19T23:49:47.756Z,102753.22
2023-02-19T23:52:14.253Z,102825.16
2023-02-19T23:54:40.724Z,102800.19
2023-02-19T23:57:07.172Z,102799.16
2023-02-19T23:59:33.598Z,102815.38
